Time;durP1;ratioP1;P1;durP2;ratioP2;P2;SDS_P1;SDS_P2;PMS_P1;PMS_P2;Temp;Humidity;BMP_temperature;BMP_pressure;BME280_temperature;BME280_humidity;BME280_pressure;Samples;Min_cycle;Max_cycle;Signal;HPM_P1;HPM_P2
2022/02/18 00:02:17;;;;;;;2.63;1.10;;;5.40;99.90;;;;;;5066140;28;20669;-65
2022/02/18 00:04:44;;;;;;;1.90;0.80;;;5.40;99.90;;;;;;5074594;28;20201;-66
2022/02/18 00:07:10;;;;;;;3.10;1.00;;;5.40;99.90;;;;;;5075166;28;20206;-66
2022/02/18 00:09:37;;;;;;;3.27;1.00;;;5.40;99.90;;;;;;5074123;28;20212;-66
2022/02/18 00:12:05;;;;;;;2.80;1.30;;;5.40;99.90;;;;;;5072643;28;20223;-65
2022/02/18 00:14:32;;;;;;;1.43;1.07;;;5.30;99.90;;;;;;5068927;28;20257;-64
2022/02/18 00:17:00;;;;;;;2.30;0.80;;;5.30;99.90;;;;;;5074369;28;20213;-65
2022/02/18 00:19:29;;;;;;;2.63;1.00;;;5.30;99.90;;;;;;5074412;28;20357;-65
2022/02/18 00:21:56;;;;;;;1.40;0.93;;;5.30;99.90;;;;;;5070457;28;20781;-65
2022/02/18 00:24:23;;;;;;;1.33;0.97;;;5.30;99.90;;;;;;5072193;28;20235;-65
2022/02/18 00:26:49;;;;;;;2.50;0.90;;;5.30;99.90;;;;;;5063966;28;20287;-66
2022/02/18 00:29:16;;;;;;;2.00;0.97;;;5.30;99.90;;;;;;5082412;28;20299;-66
2022/02/18 00:31:43;;;;;;;3.40;0.90;;;5.30;99.90;;;;;;5077096;28;20288;-66
2022/02/18 00:34:11;;;;;;;2.43;0.93;;;5.30;99.90;;;;;;5088568;28;20289;-65
2022/02/18 00:36:39;;;;;;;1.63;1.17;;;5.30;99.90;;;;;;5072909;28;20217;-65
2022/02/18 00:39:06;;;;;;;2.87;0.80;;;5.30;99.90;;;;;;5072434;28;20240;-65
2022/02/18 00:41:32;;;;;;;1.07;0.80;;;5.30;99.90;;;;;;5069590;28;20205;-65
2022/02/18 00:43:59;;;;;;;2.93;1.10;;;5.30;99.90;;;;;;5062861;28;20274;-65
2022/02/18 00:46:27;;;;;;;1.83;0.93;;;5.30;99.90;;;;;;5063950;28;20197;-66
2022/02/18 00:48:54;;;;;;;2.27;0.80;;;5.30;99.90;;;;;;5074295;28;20212;-65
2022/02/18 00:51:23;;;;;;;3.37;1.10;;;5.30;99.90;;;;;;5078409;28;20220;-66
2022/02/18 00:53:49;;;;;;;2.83;1.13;;;5.30;99.90;;;;;;5060997;28;20237;-65
2022/02/18 00:56:16;;;;;;;0.87;0.80;;;5.40;99.90;;;;;;5064346;28;20690;-66
2022/02/18 00:58:43;;;;;;;2.60;1.00;;;5.30;99.90;;;;;;5073366;28;20312;-66
2022/02/18 01:01:10;;;;;;;3.27;1.20;;;5.30;99.90;;;;;;5073042;28;20201;-65
2022/02/18 01:03:37;;;;;;;2.33;1.30;;;5.30;99.90;;;;;;5073880;28;20572;-66
2022/02/18 01:06:04;;;;;;;1.17;0.80;;;6.90;99.90;;;;;;5076288;28;20196;-65
2022/02/18 01:08:33;;;;;;;2.60;1.03;;;5.30;99.90;;;;;;5084127;28;20233;-65
2022/02/18 01:10:59;;;;;;;4.67;2.20;;;5.30;99.90;;;;;;5069006;28;20655;-64
2022/02/18 01:13:28;;;;;;;2.10;0.90;;;5.30;99.90;;;;;;5080016;28;20301;-64
2022/02/18 01:15:55;;;;;;;2.57;0.83;;;5.30;99.90;;;;;;5072482;28;20666;-66
2022/02/18 01:18:22;;;;;;;1.17;0.90;;;5.30;99.90;;;;;;5074509;28;20243;-65
2022/02/18 01:20:49;;;;;;;2.57;1.57;;;5.30;99.90;;;;;;5064380;28;20240;-65
2022/02/18 01:23:16;;;;;;;4.57;1.57;;;5.30;99.90;;;;;;5069412;28;20239;-64
2022/02/18 01:25:44;;;;;;;5.80;1.43;;;5.30;99.90;;;;;;5072868;28;20209;-66
2022/02/18 01:28:11;;;;;;;3.03;1.10;;;5.30;99.90;;;;;;5072726;28;20205;-66
2022/02/18 01:30:38;;;;;;;2.67;0.80;;;5.30;99.90;;;;;;5070694;28;20220;-64
2022/02/18 01:33:05;;;;;;;5.57;1.50;;;5.30;99.90;;;;;;5085433;28;20303;-65
2022/02/18 01:35:33;;;;;;;6.33;1.27;;;5.30;99.90;;;;;;5072929;28;20296;-64
2022/02/18 01:38:01;;;;;;;7.10;2.23;;;5.30;99.90;;;;;;5065868;28;20650;-66
2022/02/18 01:40:29;;;;;;;2.73;1.27;;;5.30;99.90;;;;;;5068141;28;20214;-65
2022/02/18 01:42:57;;;;;;;3.17;1.30;;;5.30;99.90;;;;;;5068855;28;20217;-65
2022/02/18 01:45:24;;;;;;;3.37;1.00;;;5.20;99.90;;;;;;5072177;28;20233;-65
2022/02/18 01:47:51;;;;;;;4.00;1.43;;;5.20;99.90;;;;;;5073249;28;20637;-66
2022/02/18 01:50:19;;;;;;;4.87;1.53;;;5.20;99.90;;;;;;5070266;28;20587;-64
2022/02/18 01:52:49;;;;;;;3.20;1.30;;;5.20;99.90;;;;;;5072522;28;20229;-64
2022/02/18 01:55:17;;;;;;;3.23;0.93;;;5.20;99.90;;;;;;5062475;28;20694;-64
2022/02/18 01:57:46;;;;;;;5.10;1.37;;;5.20;99.90;;;;;;5070844;28;20201;-65
2022/02/18 02:00:16;;;;;;;6.40;1.33;;;5.20;99.90;;;;;;5070899;28;20243;-64
2022/02/18 02:02:44;;;;;;;3.13;1.20;;;5.20;99.90;;;;;;5072556;28;20212;-64
2022/02/18 02:05:12;;;;;;;3.37;1.43;;;5.20;99.90;;;;;;5063510;28;20220;-63
2022/02/18 02:07:40;;;;;;;3.63;1.30;;;5.20;99.90;;;;;;5069430;28;20207;-64
2022/02/18 02:10:08;;;;;;;1.27;1.03;;;5.20;99.90;;;;;;5058388;28;20201;-64
2022/02/18 02:12:39;;;;;;;2.83;1.00;;;5.20;99.90;;;;;;5065819;28;20267;-64
2022/02/18 02:15:07;;;;;;;3.80;1.70;;;5.20;99.90;;;;;;5075138;28;20224;-65
2022/02/18 02:17:36;;;;;;;2.93;1.20;;;5.20;99.90;;;;;;5076720;28;20295;-65
2022/02/18 02:20:04;;;;;;;2.77;1.37;;;5.20;99.90;;;;;;5072229;28;20618;-65
2022/02/18 02:22:32;;;;;;;4.83;1.20;;;5.20;99.90;;;;;;5071309;28;20229;-63
2022/02/18 02:25:00;;;;;;;4.00;1.13;;;5.20;99.90;;;;;;5071514;28;20295;-64
2022/02/18 02:27:27;;;;;;;5.20;1.33;;;5.20;99.90;;;;;;5076083;28;20579;-65
2022/02/18 02:29:53;;;;;;;3.17;1.40;;;5.20;99.90;;;;;;5080735;28;20312;-65
2022/02/18 02:32:20;;;;;;;3.40;1.30;;;5.20;99.90;;;;;;5076600;28;20228;-64
2022/02/18 02:34:48;;;;;;;7.07;1.10;;;5.20;99.90;;;;;;5076035;28;20584;-65
2022/02/18 02:37:15;;;;;;;1.80;0.90;;;5.20;99.90;;;;;;5076286;28;20709;-64
2022/02/18 02:39:44;;;;;;;3.77;1.53;;;5.30;99.90;;;;;;5075608;28;20319;-65
2022/02/18 02:42:11;;;;;;;5.00;1.57;;;5.30;99.90;;;;;;5091174;28;20296;-64
2022/02/18 02:44:38;;;;;;;5.33;1.10;;;5.20;99.90;;;;;;5087065;28;20229;-65
2022/02/18 02:47:05;;;;;;;3.67;1.17;;;5.30;99.90;;;;;;5076155;28;20673;-64
2022/02/18 02:49:33;;;;;;;5.97;1.50;;;5.20;99.90;;;;;;5074810;28;20228;-65
2022/02/18 02:52:00;;;;;;;8.00;1.67;;;5.20;99.90;;;;;;5076176;28;20232;-64
2022/02/18 02:54:27;;;;;;;5.03;1.40;;;5.20;99.90;;;;;;5076427;28;20259;-64
2022/02/18 02:56:56;;;;;;;4.93;1.57;;;5.20;99.90;;;;;;5072096;28;20246;-64
2022/02/18 02:59:24;;;;;;;4.03;1.13;;;5.20;99.90;;;;;;5075091;28;20696;-64
2022/02/18 03:01:52;;;;;;;4.83;1.53;;;5.10;99.90;;;;;;5075571;28;20205;-64
2022/02/18 03:04:19;;;;;;;3.17;1.13;;;5.10;99.90;;;;;;5075607;28;20209;-65
2022/02/18 03:06:46;;;;;;;5.87;1.70;;;5.00;99.90;;;;;;5084616;28;20657;-64
2022/02/18 03:09:14;;;;;;;4.73;1.20;;;5.00;99.90;;;;;;5078734;28;20232;-64
2022/02/18 03:11:41;;;;;;;5.40;1.50;;;4.90;99.90;;;;;;5074452;28;20201;-65
2022/02/18 03:14:09;;;;;;;5.83;1.53;;;4.90;99.90;;;;;;5075410;28;20208;-64
2022/02/18 03:16:36;;;;;;;4.40;1.83;;;4.80;99.90;;;;;;5075160;28;20225;-64
2022/02/18 03:19:03;;;;;;;5.90;1.87;;;4.80;99.90;;;;;;5075530;28;20664;-64
2022/02/18 03:21:30;;;;;;;5.00;1.43;;;4.80;99.90;;;;;;5073659;28;20270;-64
2022/02/18 03:23:57;;;;;;;4.40;1.40;;;5.70;99.90;;;;;;5074911;28;20258;-64
2022/02/18 03:26:24;;;;;;;3.77;1.90;;;4.80;99.90;;;;;;5073979;28;20205;-64
2022/02/18 03:28:51;;;;;;;3.53;1.60;;;4.80;99.90;;;;;;5079567;28;20299;-64
2022/02/18 03:31:19;;;;;;;7.00;1.30;;;4.80;99.90;;;;;;5075446;28;20216;-64
2022/02/18 03:33:46;;;;;;;6.67;1.67;;;4.70;99.90;;;;;;5089284;28;20213;-65
2022/02/18 03:36:13;;;;;;;3.87;1.40;;;4.70;99.90;;;;;;5073557;28;20662;-64
2022/02/18 03:38:40;;;;;;;5.87;1.27;;;4.70;99.90;;;;;;5074800;28;20253;-63
2022/02/18 03:41:08;;;;;;;3.80;1.27;;;4.70;99.90;;;;;;5077614;28;20780;-63
2022/02/18 03:43:35;;;;;;;4.43;1.70;;;4.70;99.90;;;;;;5089211;28;20288;-64
2022/02/18 03:46:02;;;;;;;5.63;1.40;;;4.70;99.90;;;;;;5075016;28;20205;-65
2022/02/18 03:48:32;;;;;;;5.60;1.63;;;4.70;99.90;;;;;;5075514;28;20197;-64
2022/02/18 03:50:59;;;;;;;4.60;1.30;;;4.80;99.90;;;;;;5072753;28;20208;-65
2022/02/18 03:53:27;;;;;;;6.87;1.37;;;4.80;99.90;;;;;;5074728;28;20217;-65
2022/02/18 03:55:54;;;;;;;6.10;1.43;;;4.80;99.90;;;;;;5074306;28;20282;-65
2022/02/18 03:58:21;;;;;;;6.30;1.30;;;4.80;99.90;;;;;;5074941;28;20213;-64
2022/02/18 04:00:48;;;;;;;5.53;1.23;;;4.80;99.90;;;;;;5075976;28;20674;-64
2022/02/18 04:03:15;;;;;;;4.13;1.60;;;4.90;99.90;;;;;;5082278;28;20297;-64
2022/02/18 04:05:44;;;;;;;5.33;1.23;;;4.90;99.90;;;;;;5073520;28;20288;-65
2022/02/18 04:08:11;;;;;;;6.33;1.90;;;4.90;99.90;;;;;;5088829;28;20657;-64
2022/02/18 04:10:38;;;;;;;4.27;1.60;;;4.90;99.90;;;;;;5073966;28;20232;-64
2022/02/18 04:13:04;;;;;;;6.93;1.57;;;5.00;99.90;;;;;;5074949;28;20255;-65
2022/02/18 04:15:33;;;;;;;8.50;1.63;;;5.00;99.90;;;;;;5071563;28;20228;-65
2022/02/18 04:17:59;;;;;;;4.90;1.20;;;5.00;99.90;;;;;;5073768;28;20205;-65
2022/02/18 04:20:27;;;;;;;7.33;1.70;;;5.00;99.90;;;;;;5071155;28;20221;-65
2022/02/18 04:22:56;;;;;;;4.37;1.10;;;5.00;99.90;;;;;;5074556;28;20212;-65
2022/02/18 04:25:23;;;;;;;5.57;1.43;;;5.10;99.90;;;;;;5073789;28;20212;-65
2022/02/18 04:27:53;;;;;;;4.47;1.27;;;5.10;99.90;;;;;;5074402;28;20725;-65
2022/02/18 04:30:20;;;;;;;3.93;1.30;;;5.10;99.90;;;;;;5071252;28;20228;-65
2022/02/18 04:32:47;;;;;;;5.30;1.13;;;5.10;99.90;;;;;;5083672;28;20236;-64
2022/02/18 04:35:14;;;;;;;7.83;1.40;;;5.10;99.90;;;;;;5078420;28;20288;-65
2022/02/18 04:37:42;;;;;;;2.33;1.20;;;5.20;99.90;;;;;;5073295;28;20233;-64
2022/02/18 04:40:12;;;;;;;7.83;1.90;;;5.20;99.90;;;;;;5073968;28;20261;-64
2022/02/18 04:42:42;;;;;;;4.40;1.30;;;5.10;99.90;;;;;;5074294;28;20221;-65
2022/02/18 04:45:10;;;;;;;4.07;1.40;;;5.20;99.90;;;;;;5074441;28;20657;-64
2022/02/18 04:47:37;;;;;;;3.93;1.50;;;5.20;99.90;;;;;;5073616;28;20205;-66
2022/02/18 04:50:04;;;;;;;4.03;1.30;;;5.20;99.90;;;;;;5065431;28;20205;-64
2022/02/18 04:52:33;;;;;;;2.47;1.20;;;5.20;99.90;;;;;;5073262;28;20205;-64
2022/02/18 04:55:00;;;;;;;4.97;1.10;;;5.20;99.90;;;;;;5083603;28;20210;-64
2022/02/18 04:57:28;;;;;;;3.00;1.27;;;5.20;99.90;;;;;;5076859;28;20228;-64
2022/02/18 04:59:56;;;;;;;3.67;1.07;;;5.20;99.90;;;;;;5079172;28;20239;-65
2022/02/18 05:02:23;;;;;;;5.93;1.47;;;5.20;99.90;;;;;;5073575;28;20244;-65
2022/02/18 05:04:50;;;;;;;3.87;1.20;;;5.20;99.90;;;;;;5067551;28;20221;-65
2022/02/18 05:07:16;;;;;;;4.03;1.43;;;5.20;99.90;;;;;;5073709;28;20254;-65
2022/02/18 05:09:44;;;;;;;3.83;1.37;;;5.20;99.90;;;;;;5072524;28;20197;-65
2022/02/18 05:12:11;;;;;;;4.33;1.03;;;5.20;99.90;;;;;;5073209;28;20258;-64
2022/02/18 05:14:39;;;;;;;4.10;1.20;;;5.20;99.90;;;;;;5072877;28;20211;-63
2022/02/18 05:17:06;;;;;;;3.67;1.40;;;5.30;99.90;;;;;;5064050;28;20232;-64
2022/02/18 05:19:33;;;;;;;6.50;1.00;;;5.30;99.90;;;;;;5067096;28;20201;-65
2022/02/18 05:22:00;;;;;;;4.93;1.10;;;5.30;99.90;;;;;;5073041;28;20229;-65
2022/02/18 05:24:26;;;;;;;4.43;1.40;;;5.30;99.90;;;;;;5073386;28;20572;-64
2022/02/18 05:26:53;;;;;;;3.53;1.37;;;5.30;99.90;;;;;;5072791;28;20248;-65
2022/02/18 05:29:20;;;;;;;5.10;1.30;;;5.40;99.90;;;;;;5077461;28;20247;-63
2022/02/18 05:31:48;;;;;;;4.13;1.43;;;5.40;99.90;;;;;;5073951;28;20205;-66
2022/02/18 05:34:15;;;;;;;4.30;1.10;;;5.40;99.90;;;;;;5080212;28;20205;-65
2022/02/18 05:36:42;;;;;;;4.80;1.40;;;5.40;99.90;;;;;;5076969;28;20225;-66
2022/02/18 05:39:09;;;;;;;6.10;1.30;;;5.40;99.90;;;;;;5072719;28;20244;-66
2022/02/18 05:41:36;;;;;;;4.70;1.20;;;5.40;99.90;;;;;;5078405;28;20201;-65
2022/02/18 05:44:03;;;;;;;5.33;1.43;;;5.40;99.90;;;;;;5072395;28;20205;-64
2022/02/18 05:46:30;;;;;;;5.43;1.40;;;5.50;99.90;;;;;;5071521;28;20637;-65
2022/02/18 05:48:58;;;;;;;4.57;1.00;;;5.40;99.90;;;;;;5069087;28;20209;-65
2022/02/18 05:51:25;;;;;;;4.80;1.10;;;5.40;99.90;;;;;;5073372;28;20723;-64
2022/02/18 05:53:52;;;;;;;4.77;1.50;;;5.40;99.90;;;;;;5072573;28;20205;-64
2022/02/18 05:56:19;;;;;;;5.80;1.27;;;5.40;99.90;;;;;;5059670;28;20229;-64
2022/02/18 05:58:48;;;;;;;3.43;1.10;;;5.30;99.90;;;;;;5072833;28;20209;-65
2022/02/18 06:01:16;;;;;;;6.40;1.77;;;5.40;99.90;;;;;;5068094;28;20203;-65
2022/02/18 06:03:43;;;;;;;4.57;1.30;;;5.40;99.90;;;;;;5072734;28;20201;-65
2022/02/18 06:06:11;;;;;;;2.80;0.90;;;5.40;99.90;;;;;;5072906;28;20205;-64
2022/02/18 06:08:38;;;;;;;8.40;1.87;;;5.40;99.90;;;;;;5077248;28;20242;-64
2022/02/18 06:11:04;;;;;;;3.73;1.50;;;5.40;99.90;;;;;;5083682;28;20586;-65
2022/02/18 06:13:31;;;;;;;5.70;2.07;;;5.40;99.90;;;;;;5076952;28;20632;-65
2022/02/18 06:15:58;;;;;;;6.70;1.40;;;5.40;99.90;;;;;;5068943;28;20297;-65
2022/02/18 06:18:26;;;;;;;5.83;1.43;;;5.40;99.90;;;;;;5072832;28;20209;-68
2022/02/18 06:20:53;;;;;;;4.03;1.43;;;5.40;99.90;;;;;;5067624;28;20224;-68
2022/02/18 06:23:21;;;;;;;2.20;1.00;;;5.40;99.90;;;;;;5073304;28;20222;-69
2022/02/18 06:25:48;;;;;;;7.07;1.67;;;5.40;99.90;;;;;;5075417;28;20201;-68
2022/02/18 06:28:15;;;;;;;5.07;1.40;;;5.50;99.90;;;;;;5075071;28;20542;-69
2022/02/18 06:30:42;;;;;;;6.23;1.40;;;5.40;99.90;;;;;;5072522;28;20213;-68
2022/02/18 06:33:10;;;;;;;5.57;1.73;;;5.40;99.90;;;;;;5067660;28;20231;-67
2022/02/18 06:35:39;;;;;;;5.97;1.43;;;5.40;99.90;;;;;;5076318;28;20224;-68
2022/02/18 06:38:10;;;;;;;6.57;1.30;;;5.40;99.90;;;;;;5077549;28;20220;-67
2022/02/18 06:40:39;;;;;;;4.27;1.30;;;5.40;99.90;;;;;;5070238;28;20300;-68
2022/02/18 06:43:06;;;;;;;3.07;1.50;;;5.50;99.90;;;;;;5073635;28;20236;-68
2022/02/18 06:45:33;;;;;;;7.17;1.60;;;5.50;99.90;;;;;;5076958;28;20212;-68
2022/02/18 06:48:00;;;;;;;5.73;1.43;;;5.50;99.90;;;;;;5082849;28;20263;-67
2022/02/18 06:50:27;;;;;;;5.17;1.20;;;5.50;99.90;;;;;;5078100;28;20244;-67
2022/02/18 06:52:56;;;;;;;6.47;1.40;;;5.50;99.90;;;;;;5085091;28;20616;-68
2022/02/18 06:55:24;;;;;;;8.67;1.90;;;5.50;99.90;;;;;;5075357;28;20205;-70
2022/02/18 06:57:55;;;;;;;4.27;1.70;;;5.50;99.90;;;;;;5066751;28;20236;-69
2022/02/18 07:00:24;;;;;;;4.17;1.57;;;5.50;99.90;;;;;;5065967;28;20202;-69
2022/02/18 07:02:51;;;;;;;4.77;1.70;;;5.60;99.90;;;;;;5076439;28;20229;-68
2022/02/18 07:05:18;;;;;;;6.33;1.50;;;5.60;99.90;;;;;;5075168;28;20249;-69
2022/02/18 07:07:46;;;;;;;4.97;1.67;;;5.60;99.90;;;;;;5085221;28;20291;-68
2022/02/18 07:10:14;;;;;;;4.93;1.90;;;5.60;99.90;;;;;;5077523;28;20293;-69
2022/02/18 07:12:42;;;;;;;5.10;1.70;;;5.60;99.90;;;;;;5077427;28;20232;-69
2022/02/18 07:15:11;;;;;;;4.43;1.87;;;5.60;99.90;;;;;;5079530;28;20210;-68
2022/02/18 07:17:39;;;;;;;7.07;1.63;;;5.60;99.90;;;;;;5082218;28;20230;-67
2022/02/18 07:20:08;;;;;;;8.30;2.07;;;5.60;99.90;;;;;;5069130;28;20301;-69
2022/02/18 07:22:37;;;;;;;5.67;2.00;;;5.60;99.90;;;;;;5076620;28;20224;-70
2022/02/18 07:25:05;;;;;;;4.30;2.40;;;5.60;99.90;;;;;;5077263;28;20204;-70
2022/02/18 07:27:34;;;;;;;5.33;1.43;;;5.60;99.90;;;;;;5088197;28;20222;-69
2022/02/18 07:30:01;;;;;;;4.80;1.63;;;5.60;99.90;;;;;;5074673;28;20704;-69
2022/02/18 07:32:29;;;;;;;4.73;1.70;;;5.70;99.90;;;;;;5069894;28;20265;-70
2022/02/18 07:34:56;;;;;;;7.23;1.93;;;5.70;99.90;;;;;;5068060;28;20231;-67
2022/02/18 07:37:23;;;;;;;7.27;2.00;;;5.70;99.90;;;;;;5078528;28;20253;-68
2022/02/18 07:39:50;;;;;;;9.97;2.00;;;5.70;99.90;;;;;;5071316;28;20612;-66
2022/02/18 07:42:17;;;;;;;6.83;1.83;;;5.70;99.90;;;;;;5076545;28;20198;-71
2022/02/18 07:44:44;;;;;;;6.07;1.60;;;5.70;99.90;;;;;;5074584;28;20224;-69
2022/02/18 07:47:11;;;;;;;4.43;1.97;;;5.70;99.90;;;;;;5068226;28;20205;-69
2022/02/18 07:49:40;;;;;;;3.83;1.47;;;5.80;99.90;;;;;;5074545;28;20229;-70
2022/02/18 07:52:08;;;;;;;4.77;1.77;;;5.80;99.90;;;;;;5070166;28;20212;-68
2022/02/18 07:54:35;;;;;;;7.30;2.03;;;5.70;99.90;;;;;;5069482;28;20209;-68
2022/02/18 07:57:02;;;;;;;3.73;1.57;;;5.70;99.90;;;;;;5076069;28;20232;-68
2022/02/18 07:59:30;;;;;;;7.53;2.13;;;5.70;99.90;;;;;;5084759;28;20201;-67
2022/02/18 08:01:57;;;;;;;6.07;1.60;;;5.70;99.90;;;;;;5081662;28;20207;-68
2022/02/18 08:04:24;;;;;;;5.83;2.17;;;5.80;99.90;;;;;;5082195;28;20289;-69
2022/02/18 08:06:52;;;;;;;4.33;1.37;;;5.80;99.90;;;;;;5069701;28;20674;-69
2022/02/18 08:09:20;;;;;;;6.20;1.97;;;5.80;99.90;;;;;;5084550;28;20209;-68
2022/02/18 08:11:48;;;;;;;7.83;2.27;;;5.80;99.90;;;;;;5079617;28;20266;-69
2022/02/18 08:14:15;;;;;;;7.17;2.10;;;5.90;99.90;;;;;;5081523;28;20255;-68
2022/02/18 08:16:42;;;;;;;6.33;2.17;;;5.90;99.90;;;;;;5079267;28;20213;-69
2022/02/18 08:19:10;;;;;;;8.17;2.57;;;5.90;99.90;;;;;;5082970;28;20654;-71
2022/02/18 08:21:37;;;;;;;8.00;2.50;;;5.90;99.90;;;;;;5075919;28;20217;-71
2022/02/18 08:24:05;;;;;;;6.00;2.10;;;5.90;99.90;;;;;;5073389;28;20209;-69
2022/02/18 08:26:33;;;;;;;10.47;2.40;;;5.90;99.90;;;;;;5074803;28;20217;-68
2022/02/18 08:29:00;;;;;;;11.07;2.40;;;5.90;99.90;;;;;;5077922;28;20227;-70
2022/02/18 08:31:28;;;;;;;8.80;2.80;;;6.00;99.90;;;;;;5078399;28;20213;-69
2022/02/18 08:33:55;;;;;;;9.73;2.83;;;6.00;99.90;;;;;;5082458;28;20217;-69
2022/02/18 08:36:22;;;;;;;7.03;2.40;;;6.00;99.90;;;;;;5068567;28;20292;-70
2022/02/18 08:38:49;;;;;;;7.30;2.00;;;6.10;99.90;;;;;;5077116;28;20283;-70
2022/02/18 08:41:17;;;;;;;8.20;2.80;;;6.20;99.90;;;;;;5073215;28;20296;-68
2022/02/18 08:43:44;;;;;;;8.47;1.90;;;6.20;99.90;;;;;;5080050;28;20665;-69
2022/02/18 08:46:11;;;;;;;6.13;2.33;;;6.30;99.90;;;;;;5071474;28;20386;-68
2022/02/18 08:48:38;;;;;;;6.60;2.10;;;6.30;99.90;;;;;;5072642;28;20223;-68
2022/02/18 08:51:05;;;;;;;8.00;2.73;;;6.20;99.90;;;;;;5073825;28;20213;-67
2022/02/18 08:53:32;;;;;;;4.70;2.13;;;6.20;99.90;;;;;;5076425;28;20224;-68
2022/02/18 08:55:59;;;;;;;6.60;1.90;;;6.20;99.90;;;;;;5077528;28;20206;-68
2022/02/18 08:58:28;;;;;;;11.00;2.33;;;6.30;99.90;;;;;;5081684;28;20554;-70
2022/02/18 09:00:56;;;;;;;5.07;1.90;;;6.30;99.90;;;;;;5078603;28;20208;-64
2022/02/18 09:03:23;;;;;;;4.20;2.07;;;6.30;99.90;;;;;;5064215;28;20205;-68
2022/02/18 09:05:50;;;;;;;7.77;2.77;;;6.30;99.90;;;;;;5067996;28;20201;-68
2022/02/18 09:08:18;;;;;;;6.60;2.27;;;6.30;99.90;;;;;;5078290;28;20201;-69
2022/02/18 09:10:49;;;;;;;8.67;2.10;;;6.40;99.90;;;;;;5069190;28;20205;-68
2022/02/18 09:13:16;;;;;;;5.97;1.50;;;6.50;99.90;;;;;;5061146;28;20209;-64
2022/02/18 09:15:44;;;;;;;5.87;2.30;;;6.40;99.90;;;;;;5065188;28;20206;-69
2022/02/18 09:18:11;;;;;;;9.33;2.50;;;6.40;99.90;;;;;;5066496;28;20229;-69
2022/02/18 09:20:38;;;;;;;8.77;2.17;;;6.50;99.90;;;;;;5079227;28;20217;-66
2022/02/18 09:23:06;;;;;;;7.20;2.20;;;6.50;99.90;;;;;;5070065;28;20224;-67
2022/02/18 09:25:33;;;;;;;6.23;2.20;;;6.50;99.90;;;;;;5079287;28;20242;-66
2022/02/18 09:28:00;;;;;;;9.20;2.90;;;6.50;99.90;;;;;;5078709;28;20213;-66
2022/02/18 09:30:27;;;;;;;5.67;2.60;;;6.50;99.90;;;;;;5083235;28;20209;-65
2022/02/18 09:32:55;;;;;;;7.97;2.83;;;6.50;99.90;;;;;;5068057;28;20210;-65
2022/02/18 09:35:24;;;;;;;6.73;2.03;;;6.50;99.90;;;;;;5075776;28;20665;-66
2022/02/18 09:37:51;;;;;;;9.77;2.70;;;6.30;99.90;;;;;;5082882;28;20588;-66
2022/02/18 09:40:18;;;;;;;8.10;1.90;;;6.50;99.90;;;;;;5084676;28;20413;-66
2022/02/18 09:42:46;;;;;;;8.50;2.40;;;6.40;99.90;;;;;;5074120;28;20200;-65
2022/02/18 09:45:13;;;;;;;9.17;2.47;;;6.50;99.90;;;;;;5088592;28;20244;-66
2022/02/18 09:47:41;;;;;;;10.30;2.27;;;6.50;99.90;;;;;;5079603;28;20612;-65
2022/02/18 09:50:11;;;;;;;11.10;2.57;;;6.60;99.90;;;;;;5064116;28;20209;-67
2022/02/18 09:52:38;;;;;;;9.90;2.50;;;6.60;99.90;;;;;;5069945;28;20543;-66
2022/02/18 09:55:06;;;;;;;6.43;2.17;;;6.60;99.90;;;;;;5075921;28;20291;-66
2022/02/18 09:57:35;;;;;;;12.00;3.13;;;6.60;99.90;;;;;;5077993;28;20296;-66
2022/02/18 10:00:06;;;;;;;10.37;2.97;;;6.60;99.90;;;;;;5075512;28;20297;-66
2022/02/18 10:02:36;;;;;;;8.77;2.87;;;6.50;99.90;;;;;;5077702;28;20567;-64
2022/02/18 10:05:03;;;;;;;6.97;2.53;;;6.50;99.90;;;;;;5068848;28;20568;-65
2022/02/18 10:07:31;;;;;;;9.37;2.83;;;6.50;99.90;;;;;;5069326;28;20209;-67
2022/02/18 10:09:59;;;;;;;6.03;2.37;;;6.50;99.90;;;;;;5076406;28;20208;-65
2022/02/18 10:12:36;;;;;;;10.57;2.70;;;6.60;99.90;;;;;;5071489;28;20268;-65
2022/02/18 10:15:09;;;;;;;5.13;2.93;;;6.60;99.90;;;;;;5070887;28;20314;-65
2022/02/18 10:17:38;;;;;;;6.53;2.13;;;6.60;99.90;;;;;;5069662;28;20572;-65
2022/02/18 10:20:15;;;;;;;8.93;2.80;;;6.60;99.90;;;;;;5063720;28;20259;-65
2022/02/18 10:22:56;;;;;;;8.27;2.50;;;6.70;99.90;;;;;;5069711;28;20280;-66
2022/02/18 10:25:25;;;;;;;6.67;2.03;;;6.70;99.90;;;;;;5078723;28;20208;-66
2022/02/18 10:27:52;;;;;;;7.67;2.50;;;6.70;99.90;;;;;;5065016;28;20202;-65
2022/02/18 10:30:22;;;;;;;5.37;2.40;;;6.70;99.90;;;;;;5066874;28;20613;-65
2022/02/18 10:32:50;;;;;;;7.77;2.80;;;6.80;99.90;;;;;;5068463;28;20650;-65
2022/02/18 10:35:19;;;;;;;7.03;2.50;;;6.80;99.90;;;;;;5067768;28;21770;-66
2022/02/18 10:37:53;;;;;;;9.73;2.67;;;6.90;99.90;;;;;;5075007;28;20209;-66
2022/02/18 10:40:21;;;;;;;6.30;2.23;;;6.80;99.90;;;;;;5074446;28;20233;-66
2022/02/18 10:42:49;;;;;;;8.07;2.90;;;7.50;99.90;;;;;;5068623;28;20219;-70
2022/02/18 10:45:18;;;;;;;11.47;2.90;;;7.00;99.90;;;;;;5079164;28;20201;-67
2022/02/18 10:47:46;;;;;;;9.00;3.23;;;7.10;99.90;;;;;;5073228;28;20205;-68
2022/02/18 10:50:19;;;;;;;8.77;2.90;;;7.10;99.90;;;;;;5075251;28;20189;-69
2022/02/18 10:53:10;;;;;;;8.90;2.73;;;7.20;99.90;;;;;;5073965;28;20197;-68
2022/02/18 10:55:49;;;;;;;9.70;3.03;;;7.10;99.90;;;;;;5083113;28;20206;-69
2022/02/18 10:58:20;;;;;;;8.63;2.50;;;7.10;99.90;;;;;;5076238;28;20227;-69
2022/02/18 11:00:47;;;;;;;7.47;2.53;;;7.10;99.90;;;;;;5075949;28;20561;-68
2022/02/18 11:03:25;;;;;;;11.40;2.63;;;5.80;99.90;;;;;;5077600;28;20205;-69
2022/02/18 11:05:52;;;;;;;6.83;3.07;;;7.10;99.90;;;;;;5077316;28;20200;-68
2022/02/18 11:08:29;;;;;;;10.43;2.73;;;7.00;99.90;;;;;;5080763;28;20714;-69
2022/02/18 11:10:56;;;;;;;5.90;2.37;;;7.10;99.90;;;;;;5084981;28;20200;-68
2022/02/18 11:13:24;;;;;;;10.57;4.00;;;7.00;99.90;;;;;;5079928;28;20210;-68
2022/02/18 11:15:52;;;;;;;6.23;2.57;;;6.90;99.90;;;;;;5071091;28;20650;-68
2022/02/18 11:18:19;;;;;;;11.10;3.93;;;7.00;99.90;;;;;;5079655;28;20620;-68
2022/02/18 11:20:47;;;;;;;6.90;2.10;;;7.00;99.90;;;;;;5082868;28;20689;-68
2022/02/18 11:23:14;;;;;;;7.60;2.37;;;6.90;99.90;;;;;;5075993;28;20209;-69
2022/02/18 11:25:43;;;;;;;6.73;2.53;;;6.90;99.90;;;;;;5065180;28;20255;-69
2022/02/18 11:28:11;;;;;;;13.27;3.57;;;6.90;99.90;;;;;;5075987;28;20193;-69
2022/02/18 11:30:43;;;;;;;7.03;2.43;;;6.90;99.90;;;;;;5080026;28;20201;-69
2022/02/18 11:33:19;;;;;;;6.77;2.23;;;6.90;99.90;;;;;;5087881;28;20213;-70
2022/02/18 11:36:13;;;;;;;5.07;2.10;;;7.00;99.90;;;;;;5069782;28;20668;-68
2022/02/18 11:38:54;;;;;;;6.43;2.33;;;7.00;99.90;;;;;;5075320;28;20278;-70
2022/02/18 11:41:44;;;;;;;10.23;3.03;;;7.10;99.90;;;;;;5084843;28;20299;-69
2022/02/18 11:44:14;;;;;;;3.57;2.20;;;7.30;99.90;;;;;;5075067;28;20576;-68
2022/02/18 11:46:41;;;;;;;9.83;3.10;;;7.40;99.90;;;;;;5074057;28;20205;-69
2022/02/18 11:49:10;;;;;;;12.00;3.03;;;7.60;99.90;;;;;;5074976;28;20205;-68
2022/02/18 11:51:42;;;;;;;9.47;2.67;;;8.40;99.90;;;;;;5075820;28;20228;-69
2022/02/18 11:54:25;;;;;;;5.73;2.33;;;11.60;99.90;;;;;;5071528;28;20216;-69
2022/02/18 11:57:00;;;;;;;8.60;2.57;;;15.50;97.30;;;;;;5075347;28;20204;-69
2022/02/18 11:59:59;;;;;;;8.33;2.40;;;19.30;68.80;;;;;;5077998;28;20276;-69
2022/02/18 12:02:37;;;;;;;9.63;2.60;;;22.80;54.20;;;;;;5070653;28;20276;-69
2022/02/18 12:05:08;;;;;;;5.65;2.40;;;25.20;45.50;;;;;;5083731;28;20240;-70
2022/02/18 12:07:38;;;;;;;8.55;2.95;;;27.30;41.70;;;;;;5087067;28;20613;-70
2022/02/18 12:10:07;;;;;;;6.38;2.90;;;27.90;38.10;;;;;;5076842;28;20251;-70
2022/02/18 12:12:37;;;;;;;7.63;2.80;;;26.60;35.70;;;;;;5079407;28;20205;-70
2022/02/18 12:15:17;;;;;;;8.90;2.88;;;24.40;35.50;;;;;;5081451;28;20217;-70
2022/02/18 12:17:46;;;;;;;6.43;2.25;;;24.20;39.50;;;;;;5074836;28;20193;-69
2022/02/18 12:20:15;;;;;;;5.35;2.40;;;25.60;38.50;;;;;;5073751;28;20229;-68
2022/02/18 12:22:42;;;;;;;8.20;2.40;;;28.00;36.10;;;;;;5076930;28;20283;-69
2022/02/18 12:25:19;;;;;;;6.53;2.30;;;28.80;33.70;;;;;;5070033;28;20209;-69
2022/02/18 12:27:47;;;;;;;7.20;2.53;;;29.50;32.60;;;;;;5079178;28;20214;-69
2022/02/18 12:30:53;;;;;;;5.57;2.22;;;29.30;30.20;;;;;;5084471;28;20197;-69
2022/02/18 12:33:20;;;;;;;5.47;2.15;;;26.70;30.20;;;;;;5075330;28;20432;-71
2022/02/18 12:35:49;;;;;;;6.90;2.45;;;23.60;32.30;;;;;;5076629;28;20255;-69
2022/02/18 12:38:17;;;;;;;8.15;2.60;;;20.90;34.50;;;;;;5072956;28;20205;-68
2022/02/18 12:40:45;;;;;;;9.25;2.80;;;18.70;37.30;;;;;;5074303;28;20263;-68
2022/02/18 12:43:18;;;;;;;7.77;2.57;;;17.00;39.80;;;;;;5073708;28;20248;-68
2022/02/18 12:45:52;;;;;;;13.53;3.20;;;15.60;42.00;;;;;;5063066;28;20213;-70
2022/02/18 12:48:33;;;;;;;4.83;1.87;;;14.70;44.60;;;;;;5068649;28;20240;-69
2022/02/18 12:51:02;;;;;;;8.33;2.30;;;14.00;45.90;;;;;;5074682;28;20205;-68
2022/02/18 12:53:29;;;;;;;4.77;2.00;;;13.60;47.30;;;;;;5073949;28;20212;-69
2022/02/18 12:55:57;;;;;;;7.93;2.37;;;13.30;47.80;;;;;;5072678;28;20634;-70
2022/02/18 12:58:25;;;;;;;6.83;1.50;;;13.50;48.80;;;;;;5073367;28;20210;-68
2022/02/18 13:00:52;;;;;;;7.80;2.27;;;13.40;48.00;;;;;;5075884;28;20260;-69
2022/02/18 13:03:19;;;;;;;5.50;1.80;;;13.20;48.30;;;;;;5081401;28;20624;-68